GAMA weather

Markala Airport
Markala, S├ęgou Region, Mali

Public forecast

Using degrees Celsius for public forecast. Weather courtesy of forecast.io.

Closest aviation weather report (METAR) to Markala Airport

Report is more than 6 hours old.

Closest report is Koutiala Airport, 86.5 nm (160.2 km) SSE. Retrieved 2020/02/21 21:00 UTC (1 month ago):

GAKO 212100Z 06004KT CAVOK 31/10 Q1007

Closest aviation forecast (TAF) to Markala Airport

Closest forecast is Modibo Keita International Airport, 130.5 nm (241.7 km) WSW. Retrieved 2020/04/06 12:00 UTC (3 hours ago):

TAF GABS 061100Z 0612/0718 06014KT CAVOK